Terminal Aerodrome Forecast
Issued by NWS

Home | Current Version | Previous Version | Text Only | Print | Product List | Glossary On
Versions: 1 2 3 4 5 6 7 8 9 10 11 12 13 14 15
000
FTUS46 KSTO 260332 AAA
TAFSMF
TAF AMD
KSMF 260332Z 2604/2624 19010KT P6SM SKC
     FM260600 16011KT P6SM SKC
     FM261400 19006KT P6SM BKN030
     FM262100 18007KT P6SM SKC=

USA.gov is the U.S. government's official web portal to all federal, state and local government web resources and services.